createdAt,value
2018-12-10T00:04:20.094Z,10.25
2018-12-10T00:10:15.061Z,9.83
2018-12-10T00:16:10.063Z,9.5
2018-12-10T00:22:05.074Z,10.77
2018-12-10T00:28:00.098Z,10.24
2018-12-10T00:33:55.071Z,9.16
2018-12-10T00:39:50.066Z,9.39
2018-12-10T00:45:45.108Z,9.34
2018-12-10T00:51:40.098Z,8.28
2018-12-10T00:57:35.088Z,7.22
2018-12-10T01:03:30.100Z,8.39
2018-12-10T01:09:25.115Z,8.58
2018-12-10T01:15:20.108Z,8.08
2018-12-10T01:21:15.105Z,7.91
2018-12-10T01:27:10.116Z,8.25
2018-12-10T01:33:05.120Z,9
2018-12-10T01:39:00.132Z,8.46
2018-12-10T01:44:55.122Z,7.83
2018-12-10T01:50:50.115Z,8.39
2018-12-10T01:56:45.144Z,7.82
2018-12-10T02:02:40.154Z,7.73
2018-12-10T02:08:35.172Z,8.2
2018-12-10T02:14:30.148Z,8.05
2018-12-10T02:20:25.132Z,7.61
2018-12-10T02:26:20.138Z,7.53
2018-12-10T02:32:15.155Z,9.6
2018-12-10T02:38:10.151Z,10.1
2018-12-10T02:44:05.202Z,9.53
2018-12-10T02:50:00.157Z,9.3
2018-12-10T02:55:55.202Z,8.6
2018-12-10T03:01:50.163Z,9.41
2018-12-10T03:07:45.183Z,8.21
2018-12-10T03:13:40.178Z,8.12
2018-12-10T03:19:35.174Z,7.97
2018-12-10T03:25:30.226Z,7.56
2018-12-10T03:31:25.188Z,7.68
2018-12-10T03:37:20.192Z,6.7
2018-12-10T03:43:15.180Z,8.1
2018-12-10T03:49:10.207Z,7.54
2018-12-10T03:55:05.213Z,8.29
2018-12-10T04:01:00.225Z,7
2018-12-10T04:06:55.206Z,7.37
2018-12-10T04:12:50.221Z,6.34
2018-12-10T04:18:45.227Z,7.03
2018-12-10T04:24:40.228Z,6.83
2018-12-10T04:30:35.205Z,5.47
2018-12-10T04:36:30.265Z,4.87
2018-12-10T04:42:25.220Z,5.7
2018-12-10T04:48:20.271Z,5.31
2018-12-10T04:54:15.242Z,5.66
2018-12-10T05:00:10.232Z,4.72
2018-12-10T05:06:05.226Z,5.13
2018-12-10T05:12:00.260Z,4.25
2018-12-10T05:17:55.231Z,4.06
2018-12-10T05:23:50.261Z,3.83
2018-12-10T05:29:45.254Z,3.63
2018-12-10T05:35:40.255Z,3.69
2018-12-10T05:41:35.297Z,4.14
2018-12-10T05:47:30.317Z,3.62
2018-12-10T05:53:25.263Z,3.79
2018-12-10T05:59:20.320Z,5.25
2018-12-10T06:05:15.270Z,6.32
2018-12-10T06:11:10.261Z,6.34
2018-12-10T06:17:05.304Z,6.37
2018-12-10T06:23:00.277Z,5.9
2018-12-10T06:28:55.269Z,5.24
2018-12-10T06:34:50.315Z,6.1
2018-12-10T06:40:45.273Z,5.74
2018-12-10T06:46:40.324Z,4.87
2018-12-10T06:52:35.275Z,5.24
2018-12-10T06:58:30.362Z,5.3
2018-12-10T07:04:25.327Z,5.4
2018-12-10T07:10:20.309Z,4.19
2018-12-10T07:16:15.316Z,5.52
2018-12-10T07:22:10.339Z,7.71
2018-12-10T07:28:05.322Z,6.65
2018-12-10T07:34:00.317Z,4.82
2018-12-10T07:39:55.374Z,5.6
2018-12-10T07:45:50.299Z,4.81
2018-12-10T07:51:45.339Z,5.62
2018-12-10T07:57:40.338Z,5.61
2018-12-10T08:03:35.327Z,5.23
2018-12-10T08:09:30.350Z,5.6
2018-12-10T08:15:25.336Z,5.86
2018-12-10T08:21:20.366Z,6.39
2018-12-10T08:27:15.380Z,6.62
2018-12-10T08:33:10.361Z,7.43
2018-12-10T08:39:05.348Z,6.61
2018-12-10T08:45:00.362Z,8.12
2018-12-10T08:50:55.374Z,6.26
2018-12-10T08:56:50.377Z,6.03
2018-12-10T09:02:45.362Z,6.82
2018-12-10T09:08:40.431Z,7.11
2018-12-10T09:14:35.381Z,6.97
2018-12-10T09:20:30.384Z,6.59
2018-12-10T09:26:25.382Z,7.36
2018-12-10T09:32:20.380Z,7.07
2018-12-10T09:38:15.397Z,9.28
2018-12-10T09:44:10.465Z,9.08
2018-12-10T09:50:05.392Z,7.52
2018-12-10T09:56:00.420Z,8.7
2018-12-10T10:01:55.395Z,8.7
2018-12-10T10:07:50.410Z,7.69
2018-12-10T10:13:45.405Z,6.29
2018-12-10T10:19:40.419Z,7.59
2018-12-10T10:25:35.417Z,6.94
2018-12-10T10:31:31.523Z,5.62
2018-12-10T10:37:25.426Z,6.46
2018-12-10T10:43:20.435Z,5.68
2018-12-10T10:49:15.425Z,6.13
2018-12-10T10:55:10.430Z,6.6
2018-12-10T11:01:05.429Z,5.32
2018-12-10T11:07:00.430Z,5.82
2018-12-10T11:12:55.416Z,7.23
2018-12-10T11:18:50.481Z,5.63
2018-12-10T11:24:45.461Z,5.3
2018-12-10T11:30:40.485Z,5.13
2018-12-10T11:36:35.442Z,7.29
2018-12-10T11:42:30.475Z,7.6
2018-12-10T11:48:25.472Z,7.45
2018-12-10T11:54:20.515Z,7.03
2018-12-10T12:00:15.456Z,6.33
2018-12-10T12:06:10.458Z,7.24
2018-12-10T12:12:05.469Z,5.18
2018-12-10T12:18:00.494Z,4.74
2018-12-10T12:23:55.499Z,4.45
2018-12-10T12:29:50.497Z,4.29
2018-12-10T12:35:45.511Z,4.43
2018-12-10T12:41:40.490Z,3.73
2018-12-10T12:47:35.489Z,3.53
2018-12-10T12:53:30.475Z,3.41
2018-12-10T12:59:25.558Z,4.33
2018-12-10T13:05:20.495Z,3.34
2018-12-10T13:11:15.507Z,2.92
2018-12-10T13:17:10.506Z,3.54
2018-12-10T13:23:05.509Z,3.69
2018-12-10T13:29:00.618Z,2.35
2018-12-10T13:34:55.529Z,2.98
2018-12-10T13:40:50.536Z,3.15
2018-12-10T13:46:45.562Z,2.47
2018-12-10T13:52:40.564Z,3.02
2018-12-10T13:58:35.550Z,2.98
2018-12-10T14:04:30.591Z,3.21
2018-12-10T14:10:25.566Z,5.12
2018-12-10T14:16:21.062Z,3.76
2018-12-10T14:22:15.551Z,3.41
2018-12-10T14:28:10.642Z,3.79
2018-12-10T14:34:05.545Z,3.33
2018-12-10T14:40:00.540Z,3.8
2018-12-10T14:45:55.552Z,6.68
2018-12-10T14:51:50.575Z,5.02
2018-12-10T14:57:45.579Z,4.13
2018-12-10T15:03:40.578Z,5.77
2018-12-10T15:09:35.592Z,3.23
2018-12-10T15:15:30.577Z,3.98
2018-12-10T15:21:25.632Z,4.28
2018-12-10T15:27:20.574Z,3.51
2018-12-10T15:33:15.614Z,4.75
2018-12-10T15:39:10.612Z,4.71
2018-12-10T15:45:05.597Z,4.25
2018-12-10T15:51:00.649Z,5.24
2018-12-10T15:56:55.610Z,4.42
2018-12-10T16:02:50.634Z,4.99
2018-12-10T16:08:45.631Z,5.52
2018-12-10T16:14:40.621Z,6.79
2018-12-10T16:20:35.630Z,7.4
2018-12-10T16:26:30.660Z,6.32
2018-12-10T16:32:25.631Z,9.3
2018-12-10T16:38:20.642Z,8.93
2018-12-10T16:44:15.683Z,8.27
2018-12-10T16:50:10.661Z,12.26
2018-12-10T16:56:05.697Z,7.2
2018-12-10T17:02:00.662Z,8.7
2018-12-10T17:07:55.652Z,7.59
2018-12-10T17:13:50.642Z,8.38
2018-12-10T17:19:45.667Z,9.27
2018-12-10T17:25:40.651Z,11.23
2018-12-10T17:31:35.661Z,10.66
2018-12-10T17:37:30.675Z,12.65
2018-12-10T17:43:25.660Z,15.8
2018-12-10T17:49:20.684Z,10.76
2018-12-10T17:55:15.701Z,6.75
2018-12-10T18:01:10.746Z,6.67
2018-12-10T18:07:05.762Z,12.37
2018-12-10T18:13:00.682Z,8.61
2018-12-10T18:18:55.729Z,9.06
2018-12-10T18:24:50.695Z,11.95
2018-12-10T18:30:45.711Z,12.24
2018-12-10T18:36:40.693Z,10.63
2018-12-10T18:42:35.768Z,10.44
2018-12-10T18:48:30.732Z,9.79
2018-12-10T18:54:25.776Z,10.68
2018-12-10T19:00:20.750Z,12.72
2018-12-10T19:06:15.739Z,15.17
2018-12-10T19:12:10.774Z,14.59
2018-12-10T19:18:05.741Z,12
2018-12-10T19:24:00.733Z,10.28
2018-12-10T19:29:55.739Z,10.79
2018-12-10T19:35:50.738Z,10.4
2018-12-10T19:41:45.760Z,10.89
2018-12-10T19:47:40.753Z,11.96
2018-12-10T19:53:35.738Z,10.52
2018-12-10T19:59:30.763Z,12.09
2018-12-10T20:05:25.821Z,11.08
2018-12-10T20:11:20.764Z,9.77
2018-12-10T20:17:15.783Z,10.02
2018-12-10T20:23:10.776Z,9.91
2018-12-10T20:29:05.777Z,9.58
2018-12-10T20:35:00.809Z,10.13
2018-12-10T20:40:55.758Z,9.54
2018-12-10T20:46:50.811Z,12.57
2018-12-10T20:52:45.773Z,15.68
2018-12-10T20:58:40.787Z,15.26
2018-12-10T21:04:35.790Z,12.91
2018-12-10T21:10:30.808Z,13.14
2018-12-10T21:16:25.798Z,11.99
2018-12-10T21:22:20.791Z,10.02
2018-12-10T21:28:15.802Z,9.52
2018-12-10T21:34:10.822Z,9.19
2018-12-10T21:40:05.822Z,9.13
2018-12-10T21:46:00.797Z,9.59
2018-12-10T21:51:55.826Z,10.08
2018-12-10T21:57:50.832Z,8.97
2018-12-10T22:03:45.824Z,8.3
2018-12-10T22:09:40.817Z,9.48
2018-12-10T22:16:33.481Z,11.73
2018-12-10T22:22:28.501Z,10.03
2018-12-10T22:28:23.519Z,9.64
2018-12-10T22:34:18.532Z,8.69
2018-12-10T22:40:13.504Z,7.52
2018-12-10T22:46:08.501Z,6.92
2018-12-10T22:52:03.486Z,7.43
2018-12-10T22:57:58.510Z,6.64
2018-12-10T23:03:53.510Z,6.08
2018-12-10T23:09:48.510Z,6.01
2018-12-10T23:15:43.527Z,5.96
2018-12-10T23:21:38.535Z,6.99
2018-12-10T23:27:33.519Z,6.95
2018-12-10T23:33:28.529Z,5.62
2018-12-10T23:39:23.531Z,5.55
2018-12-10T23:45:18.550Z,5.47
2018-12-10T23:51:13.560Z,7.61
2018-12-10T23:57:08.580Z,7.49
